Time;durP1;ratioP1;P1;durP2;ratioP2;P2;SDS_P1;SDS_P2;PMS_P1;PMS_P2;Temp;Humidity;BMP_temperature;BMP_pressure;BME280_temperature;BME280_humidity;BME280_pressure;Samples;Min_cycle;Max_cycle;Signal;HPM_P1;HPM_P2
2022/08/27 00:01:32;;;;;;;32.07;23.60;;;21.40;80.30;;;;;;5047562;28;20635;-79
2022/08/27 00:03:58;;;;;;;32.00;25.90;;;21.40;77.40;;;;;;5045639;28;20462;-79
2022/08/27 00:06:25;;;;;;;38.50;26.27;;;21.50;79.70;;;;;;5044839;28;21898;-79
2022/08/27 00:08:51;;;;;;;39.50;26.53;;;21.10;83.80;;;;;;5044365;28;20200;-79
2022/08/27 00:11:19;;;;;;;38.07;28.00;;;21.10;90.50;;;;;;5045544;28;20477;-79
2022/08/27 00:13:45;;;;;;;36.30;26.77;;;21.10;93.20;;;;;;5040039;28;20444;-80
2022/08/27 00:16:13;;;;;;;36.00;26.70;;;21.00;92.90;;;;;;5041353;28;20829;-79
2022/08/27 00:18:41;;;;;;;40.70;29.07;;;21.00;93.60;;;;;;5037400;28;20220;-79
2022/08/27 00:21:07;;;;;;;34.27;27.40;;;21.00;98.80;;;;;;5037212;28;20580;-79
2022/08/27 00:23:34;;;;;;;37.40;27.80;;;20.90;99.90;;;;;;5046274;28;20451;-79
2022/08/27 00:26:00;;;;;;;35.87;27.33;;;20.80;99.90;;;;;;5041811;28;20909;-79
2022/08/27 00:28:26;;;;;;;31.27;26.70;;;20.70;99.90;;;;;;5046156;28;20470;-79
2022/08/27 00:30:54;;;;;;;42.13;29.40;;;20.60;99.60;;;;;;5043781;28;20177;-79
2022/08/27 00:33:20;;;;;;;40.07;29.90;;;20.60;99.90;;;;;;5041093;28;20446;-79
2022/08/27 00:35:46;;;;;;;36.70;28.00;;;20.60;99.90;;;;;;5047094;28;20431;-79
2022/08/27 00:38:13;;;;;;;34.77;28.70;;;20.50;99.90;;;;;;5047054;28;20430;-79
2022/08/27 00:40:39;;;;;;;39.10;28.70;;;20.50;99.90;;;;;;5043288;28;20423;-79
2022/08/27 00:43:05;;;;;;;40.67;28.67;;;20.50;99.90;;;;;;5042908;28;20430;-79
2022/08/27 00:45:36;;;;;;;37.63;29.20;;;20.40;99.90;;;;;;5046043;28;20416;-78
2022/08/27 00:48:03;;;;;;;44.70;31.40;;;20.50;99.90;;;;;;5039967;28;20216;-79
2022/08/27 00:50:34;;;;;;;44.80;31.10;;;20.40;99.90;;;;;;5044577;28;20823;-79
2022/08/27 00:53:05;;;;;;;43.43;30.03;;;20.40;99.90;;;;;;5043726;28;20923;-78
2022/08/27 00:55:41;;;;;;;42.30;30.50;;;20.40;99.90;;;;;;5045619;28;20771;-78
2022/08/27 00:58:40;;;;;;;37.70;28.40;;;20.30;99.90;;;;;;5042510;28;20530;-79
2022/08/27 01:01:09;;;;;;;48.63;31.73;;;20.30;99.90;;;;;;5049655;28;20447;-79
2022/08/27 01:03:35;;;;;;;48.43;30.40;;;20.30;99.90;;;;;;5046670;28;20453;-78
2022/08/27 01:06:03;;;;;;;44.00;31.57;;;20.30;99.90;;;;;;5054170;28;20415;-79
2022/08/27 01:08:33;;;;;;;47.13;31.17;;;20.20;99.90;;;;;;5043116;28;20201;-78
2022/08/27 01:10:59;;;;;;;50.17;32.47;;;20.20;99.90;;;;;;5046802;28;20459;-82
2022/08/27 01:13:28;;;;;;;46.53;31.17;;;20.10;99.90;;;;;;5047097;28;20489;-78
2022/08/27 01:15:57;;;;;;;38.73;26.50;;;20.20;99.90;;;;;;5045826;28;20431;-78
2022/08/27 01:18:25;;;;;;;42.17;29.47;;;20.20;99.90;;;;;;5047931;28;20433;-78
2022/08/27 01:21:09;;;;;;;45.00;30.43;;;20.20;99.90;;;;;;5044312;28;20832;-78
2022/08/27 01:23:50;;;;;;;39.80;29.77;;;20.20;99.90;;;;;;5044639;28;20447;-78
2022/08/27 01:26:16;;;;;;;37.60;28.43;;;20.20;99.90;;;;;;5045309;28;20489;-78
2022/08/27 01:28:43;;;;;;;46.13;32.90;;;20.10;99.90;;;;;;5044841;28;20466;-78
2022/08/27 01:31:11;;;;;;;41.67;30.60;;;20.20;99.90;;;;;;5037387;28;20439;-78
2022/08/27 01:33:37;;;;;;;41.80;28.60;;;20.10;99.90;;;;;;5046656;28;20431;-78
2022/08/27 01:36:05;;;;;;;42.97;30.27;;;20.10;99.90;;;;;;5045996;28;20806;-78
2022/08/27 01:38:31;;;;;;;47.77;31.30;;;20.10;99.90;;;;;;5047570;28;20419;-79
2022/08/27 01:41:00;;;;;;;46.63;32.57;;;20.10;99.90;;;;;;5047883;28;20423;-79
2022/08/27 01:43:27;;;;;;;47.77;31.10;;;20.10;99.90;;;;;;5048893;28;20462;-78
2022/08/27 01:45:53;;;;;;;48.77;30.00;;;20.20;99.90;;;;;;5038438;28;20831;-78
2022/08/27 01:48:20;;;;;;;38.80;28.43;;;20.20;99.90;;;;;;5038341;28;20433;-79
2022/08/27 01:50:47;;;;;;;40.63;29.37;;;20.20;99.90;;;;;;5057239;28;20365;-78
2022/08/27 01:53:21;;;;;;;44.73;28.93;;;20.20;99.90;;;;;;5048370;28;20404;-78
2022/08/27 01:55:48;;;;;;;45.43;29.10;;;20.20;99.90;;;;;;5040779;28;20436;-78
2022/08/27 01:58:14;;;;;;;43.33;30.20;;;20.20;99.90;;;;;;5034098;28;20435;-79
2022/08/27 02:00:42;;;;;;;43.37;29.87;;;20.20;99.90;;;;;;5047131;28;20436;-79
2022/08/27 02:03:09;;;;;;;43.53;31.60;;;20.20;99.90;;;;;;5046544;28;20306;-78
2022/08/27 02:05:35;;;;;;;49.80;32.90;;;20.10;99.90;;;;;;5044847;28;20421;-79
2022/08/27 02:08:01;;;;;;;42.93;30.57;;;20.20;99.90;;;;;;5045638;28;20454;-80
2022/08/27 02:10:31;;;;;;;45.17;30.23;;;20.20;99.90;;;;;;5046279;28;20246;-78
2022/08/27 02:12:56;;;;;;;49.07;30.90;;;20.30;99.90;;;;;;5041468;28;20186;-78
2022/08/27 02:15:23;;;;;;;46.40;31.30;;;20.30;99.90;;;;;;5045052;28;20606;-78
2022/08/27 02:17:49;;;;;;;45.03;31.87;;;20.30;99.90;;;;;;5045655;28;21433;-78
2022/08/27 02:20:16;;;;;;;46.70;32.10;;;20.40;99.90;;;;;;5045488;28;20798;-78
2022/08/27 02:22:42;;;;;;;46.70;32.07;;;20.30;99.90;;;;;;5045354;28;20443;-80
2022/08/27 02:25:11;;;;;;;49.17;31.47;;;20.30;99.90;;;;;;5047101;28;20466;-78
2022/08/27 02:27:37;;;;;;;53.73;31.60;;;20.20;99.90;;;;;;5044884;28;20197;-79
2022/08/27 02:30:04;;;;;;;49.80;31.47;;;20.10;99.90;;;;;;5045341;28;20553;-78
2022/08/27 02:32:31;;;;;;;43.53;30.93;;;20.10;99.90;;;;;;5045298;28;20435;-78
2022/08/27 02:34:57;;;;;;;44.50;30.27;;;20.10;99.90;;;;;;5043692;28;20450;-78
2022/08/27 02:37:22;;;;;;;44.00;31.17;;;20.10;99.90;;;;;;5039664;28;20432;-78
2022/08/27 02:39:48;;;;;;;45.37;29.80;;;20.10;99.90;;;;;;5045983;28;20470;-78
2022/08/27 02:42:14;;;;;;;42.93;30.03;;;20.10;99.90;;;;;;5041843;28;20216;-78
2022/08/27 02:44:39;;;;;;;40.40;30.30;;;20.10;99.90;;;;;;5039037;28;20556;-79
2022/08/27 02:47:05;;;;;;;41.60;29.17;;;20.10;99.90;;;;;;5043096;28;20611;-78
2022/08/27 02:49:30;;;;;;;39.90;29.10;;;20.10;99.90;;;;;;5049203;28;20212;-78
2022/08/27 02:51:57;;;;;;;38.87;29.27;;;20.10;99.90;;;;;;5048414;28;20177;-78
2022/08/27 02:54:24;;;;;;;40.00;28.97;;;20.10;99.90;;;;;;5043613;28;20220;-79
2022/08/27 02:56:51;;;;;;;44.53;31.90;;;20.10;99.90;;;;;;5045564;28;20431;-78
2022/08/27 02:59:17;;;;;;;49.20;31.40;;;20.10;99.90;;;;;;5049319;28;20491;-78
2022/08/27 03:01:43;;;;;;;38.57;28.80;;;20.10;99.90;;;;;;5043772;28;20973;-79
2022/08/27 03:04:09;;;;;;;43.17;29.03;;;20.10;99.90;;;;;;5042092;28;20487;-78
2022/08/27 03:06:34;;;;;;;45.13;30.03;;;20.00;99.90;;;;;;5045481;28;20704;-79
2022/08/27 03:09:00;;;;;;;45.30;30.27;;;20.00;99.90;;;;;;5051203;28;20614;-79
2022/08/27 03:11:26;;;;;;;45.80;30.33;;;20.00;99.90;;;;;;5049053;28;20243;-78
2022/08/27 03:13:52;;;;;;;45.07;29.77;;;20.00;99.90;;;;;;5043225;28;20316;-79
2022/08/27 03:16:18;;;;;;;47.80;32.67;;;19.90;99.90;;;;;;5045489;28;20989;-78
2022/08/27 03:18:44;;;;;;;49.50;31.53;;;19.90;99.90;;;;;;5047985;28;20242;-78
2022/08/27 03:21:17;;;;;;;49.93;30.97;;;19.90;99.90;;;;;;5044042;28;20489;-78
2022/08/27 03:23:42;;;;;;;51.37;31.80;;;19.90;99.90;;;;;;5049681;28;20494;-78
2022/08/27 03:26:09;;;;;;;50.60;31.33;;;19.80;99.90;;;;;;5048766;28;20468;-78
2022/08/27 03:28:35;;;;;;;46.07;31.80;;;19.80;99.90;;;;;;5045295;28;20213;-79
2022/08/27 03:31:06;;;;;;;51.77;31.60;;;19.80;99.90;;;;;;5045725;28;20763;-78
2022/08/27 03:33:38;;;;;;;41.00;28.40;;;19.80;99.90;;;;;;5048396;28;20651;-78
2022/08/27 03:36:09;;;;;;;43.40;29.17;;;19.80;99.90;;;;;;5044722;28;20432;-78
2022/08/27 03:38:35;;;;;;;48.97;32.63;;;19.70;99.90;;;;;;5045184;28;20717;-77
2022/08/27 03:41:02;;;;;;;43.20;31.47;;;19.80;99.90;;;;;;5039327;28;20177;-80
2022/08/27 03:43:28;;;;;;;44.97;30.27;;;19.70;99.90;;;;;;5047175;28;20496;-78
2022/08/27 03:45:54;;;;;;;47.93;29.30;;;19.60;99.90;;;;;;5048981;28;20431;-78
2022/08/27 03:48:20;;;;;;;45.80;31.00;;;19.70;99.90;;;;;;5043079;28;21091;-78
2022/08/27 03:50:47;;;;;;;48.67;31.30;;;19.60;99.90;;;;;;5045779;28;20196;-78
2022/08/27 03:53:15;;;;;;;44.83;31.47;;;19.50;99.90;;;;;;5050169;28;20182;-79
2022/08/27 03:55:41;;;;;;;43.60;30.77;;;19.50;99.90;;;;;;5048108;28;20436;-79
2022/08/27 03:58:07;;;;;;;40.30;29.60;;;19.50;99.90;;;;;;5048308;28;20434;-78
2022/08/27 04:00:33;;;;;;;51.83;30.90;;;19.50;99.90;;;;;;5048924;28;20184;-78
2022/08/27 04:02:59;;;;;;;38.73;29.47;;;19.50;99.90;;;;;;5046145;28;20436;-78
2022/08/27 04:05:24;;;;;;;50.30;28.80;;;19.50;99.90;;;;;;5044354;28;20207;-78
2022/08/27 04:07:50;;;;;;;46.90;31.80;;;19.50;99.90;;;;;;5047085;28;20180;-78
2022/08/27 04:10:16;;;;;;;49.70;29.90;;;19.60;99.90;;;;;;5038617;28;20201;-78
2022/08/27 04:12:44;;;;;;;43.93;30.23;;;19.60;99.90;;;;;;5045551;28;20178;-78
2022/08/27 04:15:11;;;;;;;40.63;28.17;;;19.70;99.90;;;;;;5048902;28;20451;-78
2022/08/27 04:17:38;;;;;;;42.23;29.23;;;19.70;99.90;;;;;;5046210;28;20435;-78
2022/08/27 04:20:06;;;;;;;43.00;28.80;;;19.80;99.90;;;;;;5048962;28;20442;-77
2022/08/27 04:22:32;;;;;;;40.13;27.80;;;19.80;99.90;;;;;;5045835;28;20448;-78
2022/08/27 04:24:59;;;;;;;36.87;27.80;;;19.80;99.90;;;;;;5043905;28;20826;-80
2022/08/27 04:27:25;;;;;;;39.80;27.80;;;19.70;99.90;;;;;;5045183;28;20427;-77
2022/08/27 04:29:54;;;;;;;40.13;28.30;;;19.60;99.90;;;;;;5036659;28;20456;-78
2022/08/27 04:32:20;;;;;;;44.00;31.07;;;19.60;99.90;;;;;;5046119;28;20428;-77
2022/08/27 04:34:46;;;;;;;44.30;29.57;;;19.70;99.90;;;;;;5045504;28;20451;-77
2022/08/27 04:37:11;;;;;;;42.83;28.97;;;19.70;99.90;;;;;;5048626;28;20615;-78
2022/08/27 04:39:37;;;;;;;45.20;28.37;;;19.80;99.90;;;;;;5048340;28;20227;-78
2022/08/27 04:42:02;;;;;;;49.33;30.00;;;19.80;99.90;;;;;;5042486;28;20212;-78
2022/08/27 04:44:31;;;;;;;41.80;30.00;;;19.80;99.90;;;;;;5043988;28;20221;-77
2022/08/27 04:46:59;;;;;;;41.10;29.10;;;19.80;99.90;;;;;;5046434;28;20243;-78
2022/08/27 04:49:26;;;;;;;41.47;29.07;;;19.80;99.90;;;;;;5037152;28;20978;-78
2022/08/27 04:51:52;;;;;;;37.27;28.10;;;19.80;99.90;;;;;;5043687;28;20450;-77
2022/08/27 04:54:18;;;;;;;46.40;29.40;;;19.80;99.90;;;;;;5036536;28;20502;-78
2022/08/27 04:56:43;;;;;;;41.13;29.10;;;19.80;99.90;;;;;;5047002;28;20427;-78
2022/08/27 04:59:10;;;;;;;44.07;29.77;;;19.90;99.90;;;;;;5048908;28;20188;-78
2022/08/27 05:01:37;;;;;;;49.53;30.57;;;20.00;99.90;;;;;;5048883;28;20169;-77
2022/08/27 05:04:03;;;;;;;54.13;30.80;;;20.00;99.90;;;;;;5047377;28;20440;-78
2022/08/27 05:06:29;;;;;;;37.97;28.23;;;20.00;99.90;;;;;;5042666;28;21047;-79
2022/08/27 05:08:55;;;;;;;46.53;29.80;;;20.00;99.90;;;;;;5039544;28;20198;-75
2022/08/27 05:11:22;;;;;;;45.30;28.93;;;20.10;99.90;;;;;;5028525;28;20544;-79
2022/08/27 05:13:48;;;;;;;37.97;27.53;;;20.10;99.90;;;;;;5029581;28;20190;-78
2022/08/27 05:16:18;;;;;;;42.33;28.27;;;20.00;99.90;;;;;;5029071;28;20424;-78
2022/08/27 05:18:44;;;;;;;41.93;27.43;;;20.10;99.90;;;;;;5029293;28;20182;-79
2022/08/27 05:21:15;;;;;;;39.63;28.70;;;20.10;99.90;;;;;;5044695;28;20446;-77
2022/08/27 05:23:41;;;;;;;42.97;27.53;;;20.10;99.90;;;;;;5051831;28;20443;-78
2022/08/27 05:26:07;;;;;;;39.90;27.50;;;20.10;99.90;;;;;;5060729;28;20928;-77
2022/08/27 05:28:33;;;;;;;35.60;26.53;;;20.10;99.90;;;;;;5049249;28;20200;-77
2022/08/27 05:31:05;;;;;;;36.30;28.17;;;20.10;99.90;;;;;;5044996;28;20477;-80
2022/08/27 05:33:32;;;;;;;41.00;28.10;;;20.10;99.90;;;;;;5039394;28;20225;-77
2022/08/27 05:35:59;;;;;;;39.33;26.63;;;20.20;99.90;;;;;;5041272;28;20411;-79
2022/08/27 05:38:26;;;;;;;38.17;27.43;;;20.30;99.90;;;;;;5047686;28;20173;-78
2022/08/27 05:41:10;;;;;;;34.70;25.43;;;20.30;99.90;;;;;;5045376;28;20444;-77
2022/08/27 05:43:38;;;;;;;33.27;23.87;;;20.30;99.90;;;;;;5043023;28;20490;-77
2022/08/27 05:46:06;;;;;;;33.63;24.50;;;20.30;99.90;;;;;;5042641;28;20933;-78
2022/08/27 05:48:33;;;;;;;34.90;24.60;;;20.40;99.90;;;;;;5042700;28;20435;-79
2022/08/27 05:51:08;;;;;;;35.57;25.70;;;20.40;99.90;;;;;;5037697;28;20514;-79
2022/08/27 05:53:33;;;;;;;35.80;27.33;;;20.50;99.90;;;;;;5048271;28;20433;-79
2022/08/27 05:55:59;;;;;;;40.73;27.33;;;20.60;99.90;;;;;;5043416;28;20211;-82
2022/08/27 06:01:09;;;;;;;42.57;26.90;;;20.60;99.90;;;;;;5038664;28;20183;-76
2022/08/27 06:03:36;;;;;;;36.33;26.00;;;20.70;99.90;;;;;;5046919;28;20475;-78
2022/08/27 06:06:04;;;;;;;30.53;24.70;;;20.70;99.90;;;;;;5040879;28;20428;-78
2022/08/27 06:08:30;;;;;;;34.20;24.40;;;20.70;99.90;;;;;;5043016;28;20420;-77
2022/08/27 06:10:55;;;;;;;31.30;23.30;;;20.80;99.90;;;;;;5046667;28;20427;-77
2022/08/27 06:13:22;;;;;;;28.73;22.43;;;20.80;99.90;;;;;;5044273;28;20687;-79
2022/08/27 06:15:48;;;;;;;33.77;22.93;;;21.00;99.90;;;;;;5042141;28;20709;-77
2022/08/27 06:18:13;;;;;;;27.57;20.50;;;21.00;99.90;;;;;;5043265;28;20519;-77
2022/08/27 06:20:39;;;;;;;25.07;19.87;;;21.00;99.90;;;;;;5039970;28;20226;-79
2022/08/27 06:23:05;;;;;;;31.10;21.83;;;21.10;99.90;;;;;;5045337;28;20648;-79
2022/08/27 06:25:34;;;;;;;32.83;20.60;;;21.10;99.90;;;;;;5046591;28;20215;-77
2022/08/27 06:28:01;;;;;;;26.97;21.97;;;21.10;99.90;;;;;;5047880;28;20195;-79
2022/08/27 06:30:27;;;;;;;25.37;19.63;;;21.10;99.90;;;;;;5044523;28;20561;-77
2022/08/27 06:32:52;;;;;;;31.60;20.60;;;21.20;99.90;;;;;;5043833;28;20565;-76
2022/08/27 06:35:18;;;;;;;25.30;19.93;;;21.80;99.90;;;;;;5042650;28;20193;-79
2022/08/27 06:37:44;;;;;;;35.60;19.20;;;21.20;99.90;;;;;;5035679;28;20196;-78
2022/08/27 06:40:10;;;;;;;27.37;17.77;;;21.20;99.90;;;;;;5047916;28;20327;-78
2022/08/27 06:42:36;;;;;;;35.23;19.67;;;21.30;99.90;;;;;;5043905;28;20885;-77
2022/08/27 06:45:03;;;;;;;31.80;17.13;;;21.30;99.90;;;;;;5049925;28;20537;-77
2022/08/27 06:47:31;;;;;;;27.77;18.17;;;21.30;99.90;;;;;;5049438;28;20522;-76
2022/08/27 06:49:57;;;;;;;28.93;19.23;;;21.30;99.50;;;;;;5049611;28;20468;-78
2022/08/27 06:52:23;;;;;;;29.10;18.20;;;21.30;96.50;;;;;;5042854;28;20428;-76
2022/08/27 06:54:49;;;;;;;29.90;18.23;;;21.30;94.50;;;;;;5047665;28;20192;-77
2022/08/27 06:57:15;;;;;;;22.47;16.63;;;21.40;91.50;;;;;;5050254;28;20177;-77
2022/08/27 06:59:41;;;;;;;28.40;16.40;;;21.50;91.10;;;;;;5051930;28;20502;-78
2022/08/27 07:02:06;;;;;;;24.27;16.67;;;21.60;89.70;;;;;;5041125;28;20523;-78
2022/08/27 07:04:32;;;;;;;22.80;15.57;;;21.70;75.80;;;;;;5050022;28;20250;-79
2022/08/27 07:06:59;;;;;;;25.20;16.40;;;21.90;69.00;;;;;;5048792;28;20187;-78
2022/08/27 07:09:25;;;;;;;21.97;15.37;;;22.00;66.70;;;;;;5037625;28;20556;-79
2022/08/27 07:11:51;;;;;;;28.40;17.00;;;22.10;65.50;;;;;;5048475;28;20489;-79
2022/08/27 07:14:16;;;;;;;19.40;15.60;;;22.20;60.30;;;;;;5043241;28;20451;-78
2022/08/27 07:16:42;;;;;;;20.13;14.03;;;22.30;48.40;;;;;;5044262;28;20540;-80
2022/08/27 07:19:08;;;;;;;20.60;14.93;;;22.50;48.50;;;;;;5038974;28;20189;-79
2022/08/27 07:21:34;;;;;;;19.13;13.90;;;22.60;48.60;;;;;;5040127;28;20696;-78
2022/08/27 07:24:03;;;;;;;20.07;13.70;;;22.80;48.70;;;;;;5047754;28;20223;-78
2022/08/27 07:26:31;;;;;;;23.13;15.27;;;22.90;48.80;;;;;;5051905;28;20663;-76
2022/08/27 07:28:56;;;;;;;19.03;14.43;;;23.10;45.20;;;;;;5045259;28;20459;-79
2022/08/27 07:31:22;;;;;;;19.13;14.87;;;23.10;34.60;;;;;;5047015;28;20903;-79
2022/08/27 07:33:49;;;;;;;15.03;12.90;;;23.20;29.50;;;;;;5044209;28;20193;-82
2022/08/27 07:36:15;;;;;;;23.40;14.20;;;23.30;27.90;;;;;;5050810;28;20424;-79
2022/08/27 07:38:40;;;;;;;21.40;14.57;;;23.40;19.50;;;;;;5051132;28;20431;-82
2022/08/27 07:41:11;;;;;;;18.50;13.73;;;23.60;21.50;;;;;;5057736;28;20760;-82
2022/08/27 07:46:22;;;;;;;32.33;15.07;;;23.80;15.60;;;;;;5059184;28;20450;-81
2022/08/27 07:48:49;;;;;;;18.87;13.70;;;24.00;8.20;;;;;;5053490;28;20468;-82
2022/08/27 07:51:18;;;;;;;20.17;13.47;;;24.30;9.20;;;;;;5053145;28;20441;-82
2022/08/27 07:53:44;;;;;;;17.93;13.13;;;24.50;1.00;;;;;;5059797;28;20479;-82
2022/08/27 07:56:10;;;;;;;19.43;12.53;;;24.80;1.00;;;;;;5050239;28;20438;-82
2022/08/27 07:58:36;;;;;;;22.50;12.80;;;25.10;1.00;;;;;;5049943;28;20846;-82
2022/08/27 08:01:02;;;;;;;18.73;12.10;;;25.30;1.00;;;;;;5053253;28;20427;-82
2022/08/27 08:03:27;;;;;;;20.33;13.00;;;25.60;1.00;;;;;;5059240;28;20188;-81
2022/08/27 08:05:54;;;;;;;16.73;12.80;;;25.60;1.00;;;;;;5053710;28;20193;-83
2022/08/27 08:08:21;;;;;;;15.50;12.20;;;25.90;1.00;;;;;;5058517;28;20635;-83
2022/08/27 08:10:47;;;;;;;18.73;12.40;;;26.60;1.00;;;;;;5053846;28;20436;-81
2022/08/27 08:13:13;;;;;;;17.93;12.87;;;27.10;1.00;;;;;;5055296;28;20749;-82
2022/08/27 08:15:41;;;;;;;21.83;12.40;;;27.60;1.00;;;;;;5052298;28;20493;-81
2022/08/27 08:18:07;;;;;;;20.80;12.30;;;28.00;1.00;;;;;;5051158;28;20431;-81
2022/08/27 08:20:32;;;;;;;13.80;11.30;;;28.10;1.00;;;;;;5051730;28;20953;-82
2022/08/27 08:22:58;;;;;;;15.87;10.80;;;28.30;1.00;;;;;;5060589;28;20263;-82
2022/08/27 08:25:23;;;;;;;20.20;13.10;;;28.40;1.00;;;;;;5076542;28;20196;-82
2022/08/27 08:27:49;;;;;;;15.40;12.30;;;28.50;1.00;;;;;;5048021;28;20272;-83
2022/08/27 08:30:15;;;;;;;21.70;13.40;;;28.50;1.00;;;;;;5057087;28;20201;-82
2022/08/27 08:32:42;;;;;;;25.67;12.20;;;28.30;1.00;;;;;;5055037;28;20180;-82
2022/08/27 08:35:08;;;;;;;21.73;12.37;;;28.40;1.00;;;;;;5056348;28;20263;-81
2022/08/27 08:37:34;;;;;;;19.40;11.90;;;29.10;1.00;;;;;;5054610;28;20192;-84
2022/08/27 08:40:00;;;;;;;15.80;12.57;;;30.60;1.00;;;;;;5053373;28;20219;-84
2022/08/27 08:42:44;;;;;;;16.00;11.00;;;30.70;1.00;;;;;;5049980;28;20177;-79
2022/08/27 08:45:17;;;;;;;18.33;12.50;;;31.30;1.00;;;;;;5038751;28;20211;-80
2022/08/27 08:47:51;;;;;;;18.70;11.57;;;31.80;1.00;;;;;;5049284;28;20176;-81
2022/08/27 08:50:25;;;;;;;15.88;11.93;;;31.70;1.00;;;;;;5048268;28;20559;-78
2022/08/27 08:52:58;;;;;;;15.02;10.93;;;32.40;1.00;;;;;;5041284;28;20181;-78
2022/08/27 08:55:47;;;;;;;13.25;10.77;;;32.90;1.00;;;;;;5050334;28;20230;-77
2022/08/27 08:58:33;;;;;;;13.43;10.57;;;33.20;1.00;;;;;;5047859;28;20177;-79
2022/08/27 09:01:02;;;;;;;15.82;11.27;;;33.50;1.00;;;;;;5041748;28;20168;-79
2022/08/27 09:03:31;;;;;;;20.92;11.07;;;32.50;1.00;;;;;;5045298;28;20200;-78
2022/08/27 09:06:18;;;;;;;14.60;11.55;;;31.40;1.00;;;;;;5048605;28;20249;-77
2022/08/27 09:08:44;;;;;;;13.70;11.90;;;31.10;1.00;;;;;;5046443;28;20330;-78
2022/08/27 09:11:19;;;;;;;18.27;11.85;;;30.90;1.00;;;;;;5043046;28;20539;-77
2022/08/27 09:13:56;;;;;;;16.73;12.65;;;30.60;1.00;;;;;;5050460;28;20183;-78
2022/08/27 09:16:22;;;;;;;19.75;12.20;;;31.00;1.00;;;;;;5053084;28;20168;-77
2022/08/27 09:18:48;;;;;;;14.55;11.85;;;30.70;1.00;;;;;;5052408;28;20543;-77
2022/08/27 09:21:41;;;;;;;15.73;12.50;;;30.20;1.00;;;;;;5044650;28;20176;-77
2022/08/27 09:24:24;;;;;;;18.43;12.53;;;29.90;1.00;;;;;;5051810;28;20200;-77
2022/08/27 09:26:50;;;;;;;17.33;11.93;;;30.00;1.00;;;;;;5045311;28;20659;-77
2022/08/27 09:29:20;;;;;;;15.40;12.00;;;30.30;1.00;;;;;;5051210;28;20202;-75
2022/08/27 09:31:54;;;;;;;16.20;12.60;;;30.60;1.00;;;;;;5043615;28;20259;-76
2022/08/27 09:34:22;;;;;;;17.70;12.75;;;30.90;1.00;;;;;;5047683;28;20195;-75
2022/08/27 09:36:56;;;;;;;17.02;11.35;;;31.30;1.00;;;;;;5045920;28;20183;-78
2022/08/27 09:39:39;;;;;;;20.08;12.32;;;31.60;1.00;;;;;;5041146;28;20202;-79
2022/08/27 09:42:06;;;;;;;19.90;13.23;;;31.70;1.00;;;;;;5047434;28;20643;-79
2022/08/27 09:44:43;;;;;;;17.05;13.20;;;31.20;1.00;;;;;;5045949;28;20259;-77
2022/08/27 09:47:14;;;;;;;16.60;13.18;;;31.10;1.00;;;;;;5031607;28;20601;-78
2022/08/27 09:49:40;;;;;;;16.92;11.20;;;30.80;1.00;;;;;;5046480;28;20686;-79
2022/08/27 09:52:06;;;;;;;15.27;11.82;;;30.80;1.00;;;;;;5054009;28;20173;-77
2022/08/27 09:54:46;;;;;;;25.00;12.40;;;30.70;1.00;;;;;;5045292;28;20218;-76
2022/08/27 09:57:24;;;;;;;21.27;12.57;;;30.50;1.00;;;;;;5049944;28;20222;-78
2022/08/27 09:59:52;;;;;;;15.60;12.60;;;29.90;1.00;;;;;;5053296;28;20192;-79
2022/08/27 10:02:21;;;;;;;23.30;12.63;;;29.40;1.00;;;;;;5047991;28;20177;-79
2022/08/27 10:04:49;;;;;;;15.10;12.60;;;29.10;1.00;;;;;;5054864;28;20287;-79
2022/08/27 10:07:41;;;;;;;24.90;12.27;;;28.90;1.00;;;;;;5039783;28;20284;-76
2022/08/27 10:10:17;;;;;;;21.00;12.70;;;28.60;1.00;;;;;;5046529;28;20678;-76
2022/08/27 10:12:50;;;;;;;16.97;12.60;;;28.10;1.00;;;;;;5046096;28;20682;-76
2022/08/27 10:15:16;;;;;;;16.27;12.70;;;27.50;1.00;;;;;;5047415;28;20280;-76
2022/08/27 10:17:51;;;;;;;14.33;11.10;;;27.40;1.00;;;;;;5045064;28;20509;-76
2022/08/27 10:20:41;;;;;;;23.50;14.00;;;27.30;1.00;;;;;;5048161;28;20223;-76
2022/08/27 10:23:20;;;;;;;15.23;12.27;;;27.20;1.00;;;;;;5045810;28;20181;-76
2022/08/27 10:26:00;;;;;;;17.03;12.27;;;26.70;1.00;;;;;;5051195;28;20903;-76
2022/08/27 10:28:44;;;;;;;19.83;12.90;;;26.20;1.00;;;;;;5041646;28;20964;-77
2022/08/27 10:31:39;;;;;;;18.87;13.50;;;25.80;1.00;;;;;;5044339;28;20484;-76
2022/08/27 10:34:58;;;;;;;20.60;13.13;;;25.60;1.00;;;;;;5031955;28;20900;-75
2022/08/27 10:37:47;;;;;;;17.80;12.13;;;25.40;1.00;;;;;;5043067;28;20453;-77
2022/08/27 10:40:32;;;;;;;22.70;11.87;;;25.50;1.00;;;;;;5042596;28;20431;-76
2022/08/27 10:43:30;;;;;;;20.53;12.13;;;25.80;1.00;;;;;;5049229;28;20549;-75
2022/08/27 10:46:04;;;;;;;17.27;11.77;;;26.00;1.00;;;;;;5046067;28;20434;-75
2022/08/27 10:48:34;;;;;;;15.40;11.60;;;26.10;1.00;;;;;;5049645;28;20552;-75
2022/08/27 10:51:24;;;;;;;20.57;11.47;;;26.20;1.00;;;;;;5051374;28;20464;-75
2022/08/27 10:54:19;;;;;;;18.90;12.27;;;26.10;1.00;;;;;;5046959;28;20484;-75
2022/08/27 10:57:00;;;;;;;17.80;13.00;;;26.00;1.00;;;;;;5036967;28;20467;-77
2022/08/27 10:59:42;;;;;;;14.93;11.97;;;26.00;1.00;;;;;;5047901;28;20430;-76
2022/08/27 11:02:29;;;;;;;15.13;12.00;;;25.90;1.00;;;;;;5043193;28;20442;-77
2022/08/27 11:05:05;;;;;;;18.57;12.70;;;25.90;1.00;;;;;;5045224;28;20454;-78
2022/08/27 11:07:37;;;;;;;15.97;11.43;;;26.00;1.00;;;;;;5047155;28;20422;-77
2022/08/27 11:10:13;;;;;;;18.50;11.73;;;26.10;1.00;;;;;;5030430;28;20544;-74
2022/08/27 11:12:43;;;;;;;17.97;11.60;;;26.10;1.00;;;;;;5041939;28;20964;-76
2022/08/27 11:15:14;;;;;;;17.97;12.53;;;26.30;1.00;;;;;;5050485;28;20945;-77
2022/08/27 11:18:13;;;;;;;15.23;11.20;;;26.20;1.00;;;;;;5048517;28;20909;-76
2022/08/27 11:21:05;;;;;;;16.07;11.27;;;26.60;1.00;;;;;;5034769;28;20439;-76
2022/08/27 11:23:38;;;;;;;16.00;10.97;;;26.90;1.00;;;;;;5048350;28;20501;-76
2022/08/27 11:26:04;;;;;;;17.97;11.70;;;27.00;1.00;;;;;;5036388;28;20542;-75
2022/08/27 11:28:38;;;;;;;14.27;11.67;;;27.10;1.00;;;;;;5051097;28;20876;-75
2022/08/27 11:31:12;;;;;;;13.70;11.77;;;27.30;1.00;;;;;;5047082;28;20427;-75
2022/08/27 11:33:45;;;;;;;16.37;11.10;;;27.40;1.00;;;;;;5048330;28;20442;-76
2022/08/27 11:36:44;;;;;;;18.30;11.10;;;27.40;1.00;;;;;;5048309;28;20427;-76
2022/08/27 11:39:21;;;;;;;18.33;11.67;;;27.50;1.00;;;;;;5045255;28;20829;-76
2022/08/27 11:42:17;;;;;;;18.40;11.10;;;27.60;1.00;;;;;;5044985;28;20428;-75
2022/08/27 11:44:47;;;;;;;20.83;11.33;;;27.60;1.00;;;;;;5049229;28;20527;-75
2022/08/27 11:47:22;;;;;;;15.13;11.33;;;27.70;1.00;;;;;;5050661;28;20693;-75
2022/08/27 11:49:56;;;;;;;18.27;11.47;;;27.70;1.00;;;;;;5042691;28;20465;-74
2022/08/27 11:52:27;;;;;;;18.43;11.77;;;27.70;1.00;;;;;;5049770;28;20418;-75
2022/08/27 11:55:11;;;;;;;15.20;11.83;;;27.60;1.00;;;;;;5051037;28;20566;-76
2022/08/27 11:57:37;;;;;;;14.40;11.10;;;27.50;1.00;;;;;;5035116;28;20420;-76
2022/08/27 12:00:18;;;;;;;15.00;11.07;;;27.30;1.00;;;;;;5050939;28;20407;-74
2022/08/27 12:02:54;;;;;;;15.40;11.30;;;27.20;1.00;;;;;;5047773;28;20431;-75
2022/08/27 12:05:23;;;;;;;15.30;10.63;;;27.20;1.00;;;;;;5038072;28;20593;-76
2022/08/27 12:07:51;;;;;;;14.57;11.47;;;27.20;1.00;;;;;;5038913;28;20526;-75
2022/08/27 12:10:28;;;;;;;12.13;10.33;;;27.30;1.00;;;;;;5050597;28;21056;-75
2022/08/27 12:13:07;;;;;;;15.90;11.90;;;27.40;1.00;;;;;;5044089;28;20931;-75
2022/08/27 12:15:53;;;;;;;13.30;10.93;;;27.30;1.00;;;;;;5047324;28;20403;-76
2022/08/27 12:18:35;;;;;;;17.00;11.30;;;27.20;1.00;;;;;;5041445;28;20447;-76
2022/08/27 12:21:10;;;;;;;21.40;11.17;;;27.10;1.00;;;;;;5043119;28;20438;-76
2022/08/27 12:24:02;;;;;;;17.33;11.40;;;27.20;1.00;;;;;;5038476;28;20438;-77
2022/08/27 12:26:38;;;;;;;13.57;10.60;;;27.20;1.00;;;;;;5050729;28;20468;-76
2022/08/27 12:29:24;;;;;;;15.23;11.57;;;27.20;1.00;;;;;;5041956;28;20458;-75
2022/08/27 12:31:54;;;;;;;15.20;10.97;;;27.40;1.00;;;;;;5045021;28;20421;-75
2022/08/27 12:34:24;;;;;;;17.50;11.40;;;27.40;1.00;;;;;;5047280;28;20478;-77
2022/08/27 12:36:52;;;;;;;12.17;10.70;;;27.70;1.00;;;;;;5047549;28;20484;-77
2022/08/27 12:39:25;;;;;;;17.33;10.87;;;28.10;1.00;;;;;;5036949;28;20432;-75
2022/08/27 12:41:50;;;;;;;16.27;11.27;;;28.40;1.00;;;;;;5039840;28;21064;-75
2022/08/27 12:44:26;;;;;;;12.27;10.70;;;28.30;1.00;;;;;;5043309;28;20524;-76
2022/08/27 12:46:57;;;;;;;20.13;11.87;;;28.70;1.00;;;;;;5047153;28;20179;-75
2022/08/27 12:49:33;;;;;;;14.37;10.73;;;29.40;1.00;;;;;;5044349;28;20485;-76
2022/08/27 12:52:11;;;;;;;14.17;10.70;;;30.20;1.00;;;;;;5050506;28;20439;-76